CTH4 weather

CLOSED Ottawa / Hull (Expressair) Heliport
Ottawa, Quebec, Canada

Public forecast

Using degrees Celsius for public forecast. Weather courtesy of forecast.io.

Closest aviation weather report (METAR) to Ottawa / Hull (Expressair) Heliport

Closest report is Ottawa / Gatineau Airport, 8.1 nm (15.0 km) ENE. Retrieved 2020/01/23 01:00 UTC (49 minutes ago):

CYND 230100Z 22008KT 190V250 12SM FEW017 BKN200 M01/M06 A3025 RMK SC1CI6 SLP249

Closest aviation forecast (TAF) to Ottawa / Hull (Expressair) Heliport

Closest forecast is Ottawa / Gatineau Airport, 8.1 nm (15.0 km) ENE. Retrieved 2020-01-23 00:00 UTC (2 hours ago):

TAF CYND 222338Z 2300/2302 23008KT P6SM FEW020 OVC210 RMK NXT FCST WILL BE ISSUED AT 231345Z